createdAt,value
2023-05-13T00:00:00.446Z,0
2023-05-13T00:05:00.664Z,0
2023-05-13T00:10:00.290Z,0
2023-05-13T00:15:00.273Z,0
2023-05-13T00:20:00.285Z,1
2023-05-13T00:30:00.533Z,1
2023-05-13T00:35:00.255Z,1
2023-05-13T00:40:00.302Z,1
2023-05-13T00:45:00.296Z,2
2023-05-13T00:50:00.320Z,2
2023-05-13T00:55:00.272Z,2
2023-05-13T01:00:00.367Z,2
2023-05-13T01:05:00.353Z,1
2023-05-13T01:10:00.324Z,1
2023-05-13T01:15:00.266Z,1
2023-05-13T01:20:00.300Z,2
2023-05-13T01:25:00.265Z,1
2023-05-13T01:30:00.297Z,1
2023-05-13T01:35:00.290Z,1
2023-05-13T01:40:00.297Z,1
2023-05-13T01:45:00.266Z,1
2023-05-13T01:50:00.338Z,1
2023-05-13T01:55:00.306Z,1
2023-05-13T02:00:00.290Z,1
2023-05-13T02:05:00.313Z,1
2023-05-13T02:10:00.294Z,1
2023-05-13T02:15:00.320Z,1
2023-05-13T02:20:00.308Z,1
2023-05-13T02:25:00.299Z,1
2023-05-13T02:30:00.332Z,1
2023-05-13T02:35:00.264Z,1
2023-05-13T02:40:00.354Z,1
2023-05-13T02:45:00.269Z,1
2023-05-13T02:50:00.345Z,0
2023-05-13T02:55:00.466Z,1
2023-05-13T03:00:00.265Z,2
2023-05-13T03:05:00.302Z,1
2023-05-13T03:10:00.303Z,1
2023-05-13T03:15:00.274Z,1
2023-05-13T03:20:00.345Z,1
2023-05-13T03:25:00.299Z,1
2023-05-13T03:30:00.388Z,1
2023-05-13T03:35:00.266Z,1
2023-05-13T03:40:00.301Z,1
2023-05-13T03:45:00.300Z,1
2023-05-13T03:50:00.270Z,1
2023-05-13T03:55:00.316Z,2
2023-05-13T04:00:00.286Z,2
2023-05-13T04:05:00.305Z,1
2023-05-13T04:10:00.392Z,1
2023-05-13T04:15:00.290Z,1
2023-05-13T04:20:00.357Z,2
2023-05-13T04:25:00.297Z,1
2023-05-13T04:30:00.336Z,1
2023-05-13T04:35:00.301Z,1
2023-05-13T04:40:00.297Z,1
2023-05-13T04:45:00.272Z,1
2023-05-13T04:50:00.337Z,1
2023-05-13T04:55:00.305Z,1
2023-05-13T05:00:00.303Z,1
2023-05-13T05:05:00.300Z,1
2023-05-13T05:10:00.330Z,3
2023-05-13T05:15:00.309Z,2
2023-05-13T05:20:00.295Z,3
2023-05-13T05:25:00.293Z,3
2023-05-13T05:30:00.328Z,2
2023-05-13T05:35:00.307Z,2
2023-05-13T05:40:00.273Z,3
2023-05-13T05:45:00.302Z,2
2023-05-13T05:50:00.319Z,4
2023-05-13T05:55:00.272Z,4
2023-05-13T06:00:00.366Z,4
2023-05-13T06:05:00.272Z,4
2023-05-13T06:10:00.309Z,3
2023-05-13T06:15:00.356Z,3
2023-05-13T06:20:00.269Z,2
2023-05-13T06:25:00.298Z,2
2023-05-13T06:30:00.308Z,2
2023-05-13T06:35:00.322Z,2
2023-05-13T06:40:00.317Z,3
2023-05-13T06:45:00.315Z,3
2023-05-13T06:50:00.313Z,4
2023-05-13T06:55:00.268Z,4
2023-05-13T07:00:00.354Z,4
2023-05-13T07:05:00.264Z,5
2023-05-13T07:10:00.308Z,3
2023-05-13T07:15:00.386Z,3
2023-05-13T07:20:00.307Z,3
2023-05-13T07:25:00.312Z,3
2023-05-13T07:30:00.313Z,3
2023-05-13T07:35:00.306Z,3
2023-05-13T07:40:00.284Z,7
2023-05-13T07:45:00.314Z,3
2023-05-13T07:50:00.275Z,5
2023-05-13T07:55:00.283Z,6
2023-05-13T08:00:00.335Z,4
2023-05-13T08:05:00.324Z,5
2023-05-13T08:10:00.477Z,6
2023-05-13T08:15:00.332Z,5
2023-05-13T08:20:00.320Z,8
2023-05-13T08:25:00.308Z,8
2023-05-13T08:30:00.329Z,9
2023-05-13T08:35:00.301Z,7
2023-05-13T08:40:00.313Z,6
2023-05-13T08:45:00.368Z,4
2023-05-13T08:50:00.300Z,5
2023-05-13T08:55:00.300Z,6
2023-05-13T09:00:00.302Z,6
2023-05-13T09:05:00.314Z,6
2023-05-13T09:10:00.312Z,5
2023-05-13T09:15:00.268Z,5
2023-05-13T09:20:00.386Z,6
2023-05-13T09:25:00.310Z,6
2023-05-13T09:30:00.285Z,5
2023-05-13T09:35:00.298Z,6
2023-05-13T09:40:00.303Z,4
2023-05-13T09:45:00.306Z,6
2023-05-13T09:50:00.299Z,5
2023-05-13T09:55:00.322Z,4
2023-05-13T10:00:00.286Z,5
2023-05-13T10:05:00.301Z,5
2023-05-13T10:10:00.309Z,5
2023-05-13T10:15:00.320Z,5
2023-05-13T10:20:00.312Z,5
2023-05-13T10:25:00.321Z,6
2023-05-13T10:30:02.482Z,3
2023-05-13T10:35:00.262Z,4
2023-05-13T10:40:00.398Z,5
2023-05-13T10:45:00.310Z,4
2023-05-13T10:50:00.327Z,5
2023-05-13T10:55:00.343Z,3
2023-05-13T11:00:00.292Z,1
2023-05-13T11:05:00.338Z,4
2023-05-13T11:10:00.302Z,5
2023-05-13T11:15:00.306Z,4
2023-05-13T11:20:00.298Z,7
2023-05-13T11:25:00.310Z,3
2023-05-13T11:30:00.261Z,5
2023-05-13T11:35:00.302Z,5
2023-05-13T11:40:00.349Z,5
2023-05-13T11:45:00.405Z,8
2023-05-13T11:50:00.250Z,5
2023-05-13T11:55:00.304Z,5
2023-05-13T12:00:00.268Z,4
2023-05-13T12:05:00.321Z,5
2023-05-13T12:10:00.315Z,4
2023-05-13T12:15:00.322Z,3
2023-05-13T12:20:00.318Z,5
2023-05-13T12:25:00.314Z,4
2023-05-13T12:30:00.296Z,5
2023-05-13T12:35:00.307Z,4
2023-05-13T12:40:00.297Z,4
2023-05-13T12:45:00.310Z,4
2023-05-13T12:50:00.297Z,3
2023-05-13T12:55:00.307Z,3
2023-05-13T13:00:00.491Z,5
2023-05-13T13:05:00.271Z,4
2023-05-13T13:10:00.364Z,5
2023-05-13T13:15:00.319Z,5
2023-05-13T13:20:00.273Z,6
2023-05-13T13:25:00.333Z,3
2023-05-13T13:30:00.260Z,5
2023-05-13T13:35:00.307Z,6
2023-05-13T13:40:00.299Z,6
2023-05-13T13:45:00.310Z,5
2023-05-13T13:50:00.324Z,5
2023-05-13T13:55:00.324Z,4
2023-05-13T14:00:00.330Z,4
2023-05-13T14:05:00.310Z,5
2023-05-13T14:10:01.385Z,5
2023-05-13T14:15:00.292Z,5
2023-05-13T14:20:00.315Z,5
2023-05-13T14:25:00.314Z,5
2023-05-13T14:30:00.313Z,5
2023-05-13T14:35:00.313Z,5
2023-05-13T14:40:00.301Z,5
2023-05-13T14:45:00.317Z,6
2023-05-13T14:50:00.373Z,5
2023-05-13T14:55:00.312Z,5
2023-05-13T15:00:00.384Z,4
2023-05-13T15:05:00.267Z,3
2023-05-13T15:10:00.351Z,4
2023-05-13T15:15:00.323Z,3
2023-05-13T15:20:00.306Z,5
2023-05-13T15:25:00.263Z,6
2023-05-13T15:30:00.298Z,4
2023-05-13T15:35:00.350Z,4
2023-05-13T15:40:00.371Z,5
2023-05-13T15:45:00.353Z,5
2023-05-13T15:50:00.623Z,5
2023-05-13T15:55:00.286Z,4
2023-05-13T16:00:00.407Z,4
2023-05-13T16:05:00.299Z,5
2023-05-13T16:10:00.354Z,4
2023-05-13T16:15:00.300Z,4
2023-05-13T16:20:00.377Z,4
2023-05-13T16:25:00.323Z,6
2023-05-13T16:30:00.442Z,4
2023-05-13T16:35:00.303Z,5
2023-05-13T16:40:00.341Z,4
2023-05-13T16:45:00.266Z,3
2023-05-13T16:50:00.296Z,1
2023-05-13T16:55:00.317Z,2
2023-05-13T17:00:00.263Z,4
2023-05-13T17:05:00.313Z,4
2023-05-13T17:10:00.297Z,5
2023-05-13T17:15:00.348Z,5
2023-05-13T17:20:00.406Z,3
2023-05-13T17:25:00.439Z,3
2023-05-13T17:30:00.305Z,5
2023-05-13T17:35:00.362Z,3
2023-05-13T17:40:00.271Z,3
2023-05-13T17:45:00.381Z,2
2023-05-13T17:50:00.312Z,2
2023-05-13T17:55:00.340Z,0
2023-05-13T18:00:00.346Z,2
2023-05-13T18:05:00.271Z,1
2023-05-13T18:10:00.327Z,1
2023-05-13T18:15:00.305Z,1
2023-05-13T18:20:00.288Z,1
2023-05-13T18:25:00.373Z,0
2023-05-13T18:30:00.298Z,1
2023-05-13T18:35:00.308Z,0
2023-05-13T18:40:00.399Z,1
2023-05-13T18:45:00.377Z,1
2023-05-13T18:50:00.305Z,1
2023-05-13T18:55:00.307Z,0
2023-05-13T19:00:00.412Z,0
2023-05-13T19:05:00.354Z,0
2023-05-13T19:10:00.309Z,0
2023-05-13T19:15:00.486Z,0
2023-05-13T19:20:00.420Z,0
2023-05-13T19:25:00.302Z,0
2023-05-13T19:30:00.353Z,0
2023-05-13T19:35:00.313Z,0
2023-05-13T19:40:00.275Z,0
2023-05-13T19:45:00.301Z,0
2023-05-13T19:50:00.467Z,0
2023-05-13T19:55:00.311Z,0
2023-05-13T20:00:00.311Z,0
2023-05-13T20:05:00.366Z,0
2023-05-13T20:10:00.267Z,0
2023-05-13T20:15:00.332Z,0
2023-05-13T20:20:00.327Z,0
2023-05-13T20:25:00.275Z,0
2023-05-13T20:30:00.470Z,0
2023-05-13T20:35:00.337Z,0
2023-05-13T20:40:00.258Z,0
2023-05-13T20:45:00.443Z,0
2023-05-13T20:50:00.324Z,0
2023-05-13T20:55:00.307Z,0
2023-05-13T21:00:00.395Z,0
2023-05-13T21:05:00.331Z,0
2023-05-13T21:10:00.259Z,1
2023-05-13T21:15:00.343Z,1
2023-05-13T21:20:00.295Z,0
2023-05-13T21:25:00.314Z,0
2023-05-13T21:30:00.291Z,0
2023-05-13T21:35:00.348Z,0
2023-05-13T21:40:00.251Z,0
2023-05-13T21:45:00.312Z,0
2023-05-13T21:50:00.305Z,0
2023-05-13T21:55:00.307Z,0
2023-05-13T22:00:00.363Z,0
2023-05-13T22:05:00.260Z,1
2023-05-13T22:10:00.346Z,1
2023-05-13T22:15:00.340Z,1
2023-05-13T22:20:00.285Z,2
2023-05-13T22:25:00.259Z,0
2023-05-13T22:30:00.353Z,1
2023-05-13T22:35:00.293Z,1
2023-05-13T22:40:00.320Z,1
2023-05-13T22:45:00.321Z,0
2023-05-13T22:50:00.315Z,1
2023-05-13T22:55:00.270Z,1
2023-05-13T23:00:00.311Z,1
2023-05-13T23:05:00.320Z,1
2023-05-13T23:10:00.737Z,0
2023-05-13T23:15:00.325Z,0
2023-05-13T23:20:00.259Z,0
2023-05-13T23:25:00.284Z,0
2023-05-13T23:30:00.294Z,0
2023-05-13T23:35:00.321Z,0
2023-05-13T23:40:00.296Z,0
2023-05-13T23:45:00.278Z,0
2023-05-13T23:50:00.282Z,0
2023-05-13T23:55:00.291Z,0
